Terminal Aerodrome Forecast
Issued by NWS Cleveland, OH

Home | Current Version | Previous Version | Text Only | Print | Product List | Glossary On
Versions: 1 2 3 4 5 6 7 8 9 10 11 12 13 14 15 16 17 18 19 20 21 22 23 24 25 26
000
FTUS41 KCLE 180537
TAFCLE
TAF
KCLE 180537Z 1806/1912 22012KT P6SM SCT180 WS020/26045KT
     FM181400 22014G22KT P6SM SCT200
     FM190400 21012KT P6SM SCT200=

USA.gov is the U.S. government's official web portal to all federal, state and local government web resources and services.